TNO340 SKSP-MPTO
Flight info
| Callsign | TNO340 |
|---|---|
| Flight time | 0h 55m |
| Altitude | 31000 |
| Route | BIXOX2B BIXOX DCT MORLI DCT OSUPA OSUPA2C |
| Aircraft | B738/M-SDE2E3FGHIRWXY/LB1 |
Departure
| Time | 2026-05-06 23:27 |
|---|---|
| Airport | Gustavo Rojas Pinilla International Airport (SKSP) |
Arrival
| Time | 2026-05-07 00:23 |
|---|---|
| Airport | Tocumen International Airport (MPTO) |
| Time | Latitude | Longitude | Altitude | Speed | Heading |
|---|---|---|---|---|---|
| 2026-05-06 22:54 | 12.58645 | -81.70307 | 13 ft | 0 kts | 148° |
| 2026-05-06 23:22 | 12.58693 | -81.70323 | 14 ft | 15 kts | 159° |
| 2026-05-06 23:22 | 12.58722 | -81.70332 | 14 ft | 0 kts | 174° |
| 2026-05-06 23:22 | 12.58718 | -81.70333 | 14 ft | 2 kts | 195° |
| 2026-05-06 23:23 | 12.58715 | -81.70371 | 15 ft | 13 kts | 285° |
| 2026-05-06 23:23 | 12.58711 | -81.70511 | 15 ft | 23 kts | 245° |
| 2026-05-06 23:23 | 12.58635 | -81.70651 | 18 ft | 22 kts | 242° |
| 2026-05-06 23:23 | 12.58560 | -81.70789 | 23 ft | 22 kts | 240° |
| 2026-05-06 23:24 | 12.58484 | -81.70921 | 25 ft | 21 kts | 240° |
| 2026-05-06 23:24 | 12.58410 | -81.71049 | 27 ft | 21 kts | 239° |
| 2026-05-06 23:24 | 12.58338 | -81.71173 | 26 ft | 20 kts | 239° |
| 2026-05-06 23:24 | 12.58268 | -81.71293 | 24 ft | 19 kts | 239° |
| 2026-05-06 23:25 | 12.58201 | -81.71410 | 26 ft | 19 kts | 239° |
| 2026-05-06 23:25 | 12.58136 | -81.71522 | 23 ft | 18 kts | 239° |
| 2026-05-06 23:25 | 12.58073 | -81.71629 | 30 ft | 17 kts | 239° |
| 2026-05-06 23:25 | 12.58010 | -81.71734 | 26 ft | 17 kts | 238° |
| 2026-05-06 23:26 | 12.57945 | -81.71831 | 27 ft | 16 kts | 234° |
| 2026-05-06 23:26 | 12.57886 | -81.71926 | 30 ft | 16 kts | 240° |
| 2026-05-06 23:26 | 12.57822 | -81.72006 | 29 ft | 13 kts | 239° |
| 2026-05-06 23:26 | 12.57847 | -81.72032 | 31 ft | 3 kts | 34° |
| 2026-05-06 23:27 | 12.57920 | -81.71896 | 28 ft | 58 kts | 59° |
| 2026-05-06 23:27 | 12.58270 | -81.71291 | 26 ft | 139 kts | 59° |
| 2026-05-06 23:27 | 12.58870 | -81.70248 | 220 ft | 189 kts | 60° |
| 2026-05-06 23:27 | 12.59504 | -81.69056 | 1286 ft | 190 kts | 64° |
| 2026-05-06 23:28 | 12.59719 | -81.67803 | 2618 ft | 173 kts | 99° |
| 2026-05-06 23:28 | 12.59109 | -81.66799 | 3742 ft | 169 kts | 138° |
| 2026-05-06 23:28 | 12.58018 | -81.66136 | 4158 ft | 200 kts | 145° |
| 2026-05-06 23:28 | 12.56716 | -81.65434 | 4397 ft | 228 kts | 159° |
| 2026-05-06 23:29 | 12.55052 | -81.65225 | 4687 ft | 250 kts | 172° |
| 2026-05-06 23:29 | 12.53388 | -81.64793 | 5242 ft | 251 kts | 150° |
| 2026-05-06 23:29 | 12.51830 | -81.63939 | 5784 ft | 264 kts | 148° |
| 2026-05-06 23:29 | 12.50179 | -81.63008 | 6395 ft | 275 kts | 148° |
| 2026-05-06 23:30 | 12.48487 | -81.62059 | 7206 ft | 279 kts | 149° |
| 2026-05-06 23:30 | 12.46770 | -81.61104 | 7997 ft | 284 kts | 149° |
| 2026-05-06 23:30 | 12.45016 | -81.60140 | 8748 ft | 288 kts | 150° |
| 2026-05-06 23:30 | 12.43238 | -81.59166 | 9487 ft | 292 kts | 150° |
| 2026-05-06 23:31 | 12.41439 | -81.58183 | 10219 ft | 297 kts | 150° |
| 2026-05-06 23:31 | 12.39547 | -81.57152 | 10466 ft | 319 kts | 150° |
| 2026-05-06 23:31 | 12.37552 | -81.56066 | 10658 ft | 339 kts | 150° |
| 2026-05-06 23:31 | 12.35431 | -81.54915 | 11123 ft | 349 kts | 150° |
| 2026-05-06 23:32 | 12.33273 | -81.53747 | 11778 ft | 352 kts | 151° |
| 2026-05-06 23:32 | 12.31101 | -81.52571 | 12479 ft | 354 kts | 151° |
| 2026-05-06 23:32 | 12.28912 | -81.51388 | 13130 ft | 358 kts | 150° |
| 2026-05-06 23:32 | 12.26703 | -81.50194 | 13753 ft | 361 kts | 150° |
| 2026-05-06 23:33 | 12.24477 | -81.48991 | 14333 ft | 365 kts | 150° |
| 2026-05-06 23:33 | 12.22220 | -81.47772 | 14938 ft | 368 kts | 150° |
| 2026-05-06 23:33 | 12.19980 | -81.46561 | 15509 ft | 371 kts | 150° |
| 2026-05-06 23:33 | 12.17691 | -81.45324 | 16080 ft | 374 kts | 150° |
| 2026-05-06 23:34 | 12.15384 | -81.44078 | 16630 ft | 377 kts | 150° |
| 2026-05-06 23:34 | 12.13046 | -81.42815 | 17181 ft | 380 kts | 150° |
| 2026-05-06 23:34 | 12.10697 | -81.41546 | 17712 ft | 384 kts | 150° |
| 2026-05-06 23:34 | 12.08330 | -81.40268 | 18236 ft | 386 kts | 150° |
| 2026-05-06 23:35 | 12.05944 | -81.38981 | 18723 ft | 390 kts | 150° |
| 2026-05-06 23:35 | 12.03532 | -81.37679 | 19206 ft | 394 kts | 150° |
| 2026-05-06 23:35 | 12.01135 | -81.36386 | 19657 ft | 397 kts | 150° |
| 2026-05-06 23:35 | 11.98682 | -81.35062 | 20092 ft | 400 kts | 150° |
| 2026-05-06 23:36 | 11.96211 | -81.33729 | 20517 ft | 404 kts | 149° |
| 2026-05-06 23:36 | 11.93714 | -81.32383 | 20948 ft | 407 kts | 149° |
| 2026-05-06 23:36 | 11.91199 | -81.31026 | 21347 ft | 410 kts | 149° |
| 2026-05-06 23:36 | 11.88668 | -81.29662 | 21737 ft | 413 kts | 149° |
| 2026-05-06 23:37 | 11.86116 | -81.28287 | 22106 ft | 417 kts | 149° |
| 2026-05-06 23:37 | 11.83541 | -81.26900 | 22498 ft | 419 kts | 149° |
| 2026-05-06 23:37 | 11.80987 | -81.25525 | 22866 ft | 422 kts | 149° |
| 2026-05-06 23:37 | 11.78385 | -81.24123 | 23204 ft | 425 kts | 149° |
| 2026-05-06 23:38 | 11.75761 | -81.22711 | 23519 ft | 428 kts | 149° |
| 2026-05-06 23:38 | 11.73121 | -81.21290 | 23849 ft | 430 kts | 149° |
| 2026-05-06 23:38 | 11.70464 | -81.19860 | 24177 ft | 433 kts | 149° |
| 2026-05-06 23:38 | 11.67798 | -81.18425 | 24503 ft | 435 kts | 149° |
| 2026-05-06 23:39 | 11.65116 | -81.16982 | 24808 ft | 436 kts | 149° |
| 2026-05-06 23:39 | 11.62418 | -81.15530 | 25088 ft | 439 kts | 149° |
| 2026-05-06 23:39 | 11.59746 | -81.14094 | 25388 ft | 441 kts | 149° |
| 2026-05-06 23:39 | 11.57022 | -81.12630 | 25705 ft | 443 kts | 149° |
| 2026-05-06 23:40 | 11.54304 | -81.11145 | 26009 ft | 444 kts | 148° |
| 2026-05-06 23:40 | 11.51602 | -81.09604 | 26287 ft | 446 kts | 147° |
| 2026-05-06 23:40 | 11.48900 | -81.08032 | 26565 ft | 448 kts | 147° |
| 2026-05-06 23:40 | 11.46186 | -81.06444 | 26829 ft | 450 kts | 147° |
| 2026-05-06 23:41 | 11.43463 | -81.04855 | 27096 ft | 452 kts | 147° |
| 2026-05-06 23:41 | 11.40733 | -81.03267 | 27459 ft | 452 kts | 147° |
| 2026-05-06 23:41 | 11.38040 | -81.01707 | 27885 ft | 450 kts | 148° |
| 2026-05-06 23:41 | 11.35328 | -81.00141 | 28300 ft | 448 kts | 148° |
| 2026-05-06 23:42 | 11.32614 | -80.98574 | 28662 ft | 448 kts | 148° |
| 2026-05-06 23:42 | 11.29902 | -80.97010 | 29019 ft | 448 kts | 148° |
| 2026-05-06 23:42 | 11.27191 | -80.95446 | 29404 ft | 447 kts | 148° |
| 2026-05-06 23:42 | 11.24489 | -80.93888 | 29791 ft | 446 kts | 148° |
| 2026-05-06 23:43 | 11.21796 | -80.92336 | 30144 ft | 446 kts | 148° |
| 2026-05-06 23:43 | 11.19097 | -80.90779 | 30494 ft | 445 kts | 148° |
| 2026-05-06 23:43 | 11.16441 | -80.89248 | 30864 ft | 445 kts | 148° |
| 2026-05-06 23:44 | 11.11009 | -80.86119 | 30909 ft | 450 kts | 148° |
| 2026-05-06 23:44 | 11.05608 | -80.83009 | 30899 ft | 443 kts | 149° |
| 2026-05-06 23:45 | 11.00245 | -80.79922 | 30917 ft | 444 kts | 149° |
| 2026-05-06 23:45 | 10.94890 | -80.76839 | 30913 ft | 446 kts | 149° |
| 2026-05-06 23:46 | 10.89486 | -80.73732 | 30907 ft | 447 kts | 149° |
| 2026-05-06 23:46 | 10.84068 | -80.70618 | 30907 ft | 448 kts | 149° |
| 2026-05-06 23:47 | 10.78649 | -80.67502 | 30907 ft | 448 kts | 149° |
| 2026-05-06 23:47 | 10.73261 | -80.64406 | 30904 ft | 447 kts | 149° |
| 2026-05-06 23:48 | 10.68032 | -80.61046 | 30884 ft | 443 kts | 133° |
| 2026-05-06 23:48 | 10.64226 | -80.56161 | 30912 ft | 440 kts | 125° |
| 2026-05-06 23:49 | 10.60629 | -80.51123 | 30904 ft | 441 kts | 124° |
| 2026-05-06 23:49 | 10.57003 | -80.46098 | 30906 ft | 441 kts | 125° |
| 2026-05-06 23:50 | 10.53365 | -80.41124 | 30899 ft | 442 kts | 125° |
| 2026-05-06 23:50 | 10.47836 | -80.33607 | 30900 ft | 443 kts | 126° |
| 2026-05-06 23:51 | 10.44140 | -80.28588 | 30899 ft | 444 kts | 126° |
| 2026-05-06 23:51 | 10.40465 | -80.23600 | 30898 ft | 444 kts | 126° |
| 2026-05-06 23:52 | 10.36758 | -80.18570 | 30898 ft | 445 kts | 126° |
| 2026-05-06 23:52 | 10.33046 | -80.13535 | 30899 ft | 445 kts | 126° |
| 2026-05-06 23:53 | 10.29331 | -80.08494 | 30886 ft | 446 kts | 126° |
| 2026-05-06 23:53 | 10.26686 | -80.04910 | 30883 ft | 446 kts | 126° |
| 2026-05-06 23:54 | 10.23803 | -80.01004 | 30884 ft | 446 kts | 126° |
| 2026-05-06 23:54 | 10.20140 | -79.96043 | 30869 ft | 434 kts | 126° |
| 2026-05-06 23:55 | 10.16518 | -79.91138 | 30873 ft | 435 kts | 126° |
| 2026-05-06 23:55 | 10.14696 | -79.88671 | 30511 ft | 437 kts | 126° |
| 2026-05-06 23:55 | 10.12914 | -79.86260 | 30154 ft | 431 kts | 126° |
| 2026-05-06 23:56 | 10.11120 | -79.83833 | 29723 ft | 428 kts | 126° |
| 2026-05-06 23:56 | 10.09341 | -79.81426 | 29297 ft | 424 kts | 126° |
| 2026-05-06 23:56 | 10.07576 | -79.79040 | 28850 ft | 421 kts | 126° |
| 2026-05-06 23:56 | 10.05825 | -79.76673 | 28405 ft | 418 kts | 126° |
| 2026-05-06 23:57 | 10.04087 | -79.74323 | 27960 ft | 415 kts | 125° |
| 2026-05-06 23:57 | 10.02359 | -79.71988 | 27516 ft | 412 kts | 125° |
| 2026-05-06 23:57 | 10.00643 | -79.69669 | 27072 ft | 409 kts | 125° |
| 2026-05-06 23:57 | 9.98943 | -79.67372 | 26635 ft | 406 kts | 125° |
| 2026-05-06 23:58 | 9.97276 | -79.65120 | 26204 ft | 403 kts | 124° |
| 2026-05-06 23:58 | 9.95600 | -79.62855 | 25771 ft | 400 kts | 124° |
| 2026-05-06 23:58 | 9.93939 | -79.60612 | 25339 ft | 397 kts | 124° |
| 2026-05-06 23:58 | 9.92293 | -79.58389 | 24907 ft | 394 kts | 124° |
| 2026-05-06 23:59 | 9.90650 | -79.56171 | 24471 ft | 391 kts | 124° |
| 2026-05-06 23:59 | 9.89027 | -79.53980 | 24114 ft | 386 kts | 124° |
| 2026-05-06 23:59 | 9.87435 | -79.51837 | 23971 ft | 375 kts | 125° |
| 2026-05-06 23:59 | 9.85611 | -79.50023 | 23730 ft | 374 kts | 142° |
| 2026-05-07 00:00 | 9.83302 | -79.48785 | 23340 ft | 375 kts | 152° |
| 2026-05-07 00:00 | 9.80923 | -79.47720 | 22944 ft | 374 kts | 153° |
| 2026-05-07 00:00 | 9.78538 | -79.46682 | 22549 ft | 372 kts | 153° |
| 2026-05-07 00:00 | 9.76965 | -79.45997 | 22291 ft | 370 kts | 153° |
| 2026-05-07 00:01 | 9.73820 | -79.44609 | 21772 ft | 367 kts | 153° |
| 2026-05-07 00:01 | 9.71493 | -79.43568 | 21388 ft | 365 kts | 153° |
| 2026-05-07 00:01 | 9.69187 | -79.42528 | 21008 ft | 362 kts | 153° |
| 2026-05-07 00:01 | 9.66922 | -79.41504 | 20630 ft | 360 kts | 153° |
| 2026-05-07 00:02 | 9.64646 | -79.40475 | 20258 ft | 357 kts | 153° |
| 2026-05-07 00:02 | 9.62385 | -79.39451 | 19883 ft | 355 kts | 153° |
| 2026-05-07 00:02 | 9.60135 | -79.38433 | 19513 ft | 353 kts | 153° |
| 2026-05-07 00:02 | 9.57909 | -79.37426 | 19132 ft | 346 kts | 152° |
| 2026-05-07 00:03 | 9.55872 | -79.36235 | 18802 ft | 331 kts | 142° |
| 2026-05-07 00:03 | 9.54041 | -79.34882 | 18459 ft | 322 kts | 140° |
| 2026-05-07 00:03 | 9.52285 | -79.33526 | 18120 ft | 313 kts | 140° |
| 2026-05-07 00:03 | 9.50597 | -79.32222 | 17792 ft | 306 kts | 140° |
| 2026-05-07 00:04 | 9.48920 | -79.30937 | 17482 ft | 301 kts | 140° |
| 2026-05-07 00:04 | 9.47252 | -79.29671 | 17173 ft | 298 kts | 140° |
| 2026-05-07 00:04 | 9.45582 | -79.28412 | 16847 ft | 304 kts | 141° |
| 2026-05-07 00:04 | 9.43840 | -79.27102 | 16540 ft | 317 kts | 141° |
| 2026-05-07 00:05 | 9.42059 | -79.25770 | 16178 ft | 316 kts | 141° |
| 2026-05-07 00:05 | 9.40314 | -79.24468 | 15825 ft | 309 kts | 141° |
| 2026-05-07 00:05 | 9.38768 | -79.23318 | 15517 ft | 302 kts | 141° |
| 2026-05-07 00:06 | 9.37145 | -79.22108 | 15202 ft | 296 kts | 141° |
| 2026-05-07 00:06 | 9.35511 | -79.20889 | 14867 ft | 289 kts | 141° |
| 2026-05-07 00:06 | 9.33904 | -79.19692 | 14596 ft | 285 kts | 141° |
| 2026-05-07 00:06 | 9.32315 | -79.18507 | 14292 ft | 284 kts | 141° |
| 2026-05-07 00:07 | 9.30700 | -79.17302 | 14005 ft | 296 kts | 141° |
| 2026-05-07 00:07 | 9.28997 | -79.16032 | 13656 ft | 308 kts | 142° |
| 2026-05-07 00:07 | 9.27101 | -79.15057 | 13257 ft | 314 kts | 163° |
| 2026-05-07 00:07 | 9.24928 | -79.14929 | 12939 ft | 317 kts | 186° |
| 2026-05-07 00:08 | 9.22853 | -79.15650 | 12622 ft | 319 kts | 208° |
| 2026-05-07 00:08 | 9.20980 | -79.16845 | 12299 ft | 317 kts | 211° |
| 2026-05-07 00:08 | 9.19151 | -79.18093 | 11960 ft | 317 kts | 212° |
| 2026-05-07 00:08 | 9.17339 | -79.19339 | 11618 ft | 316 kts | 212° |
| 2026-05-07 00:09 | 9.15512 | -79.20588 | 11268 ft | 315 kts | 212° |
| 2026-05-07 00:09 | 9.13694 | -79.21824 | 10929 ft | 314 kts | 212° |
| 2026-05-07 00:09 | 9.11906 | -79.23028 | 10585 ft | 313 kts | 212° |
| 2026-05-07 00:09 | 9.10896 | -79.23707 | 10393 ft | 312 kts | 212° |
| 2026-05-07 00:10 | 9.10799 | -79.23771 | 10378 ft | 312 kts | 212° |
| 2026-05-07 00:10 | 9.08992 | -79.24982 | 10089 ft | 309 kts | 212° |
| 2026-05-07 00:10 | 9.07222 | -79.26167 | 9952 ft | 301 kts | 213° |
| 2026-05-07 00:11 | 9.05491 | -79.27325 | 9707 ft | 297 kts | 213° |
| 2026-05-07 00:11 | 9.03792 | -79.28461 | 9406 ft | 296 kts | 213° |
| 2026-05-07 00:11 | 9.02078 | -79.29597 | 9089 ft | 295 kts | 211° |
| 2026-05-07 00:11 | 9.00298 | -79.30636 | 8800 ft | 294 kts | 208° |
| 2026-05-07 00:12 | 8.98507 | -79.31612 | 8505 ft | 292 kts | 208° |
| 2026-05-07 00:12 | 8.96721 | -79.32576 | 8199 ft | 290 kts | 208° |
| 2026-05-07 00:12 | 8.94943 | -79.33541 | 7888 ft | 290 kts | 208° |
| 2026-05-07 00:12 | 8.93175 | -79.34508 | 7586 ft | 289 kts | 208° |
| 2026-05-07 00:13 | 8.91415 | -79.35475 | 7293 ft | 287 kts | 208° |
| 2026-05-07 00:13 | 8.89662 | -79.36442 | 6987 ft | 286 kts | 209° |
| 2026-05-07 00:13 | 8.87943 | -79.37391 | 6677 ft | 285 kts | 209° |
| 2026-05-07 00:13 | 8.86223 | -79.38339 | 6367 ft | 277 kts | 209° |
| 2026-05-07 00:14 | 8.84553 | -79.39260 | 6093 ft | 269 kts | 209° |
| 2026-05-07 00:14 | 8.82947 | -79.40146 | 5965 ft | 256 kts | 209° |
| 2026-05-07 00:14 | 8.81609 | -79.41236 | 5804 ft | 244 kts | 236° |
| 2026-05-07 00:14 | 8.80908 | -79.42787 | 5599 ft | 245 kts | 258° |
| 2026-05-07 00:15 | 8.80589 | -79.44480 | 5394 ft | 243 kts | 263° |
| 2026-05-07 00:15 | 8.80340 | -79.46120 | 5139 ft | 235 kts | 263° |
| 2026-05-07 00:15 | 8.80098 | -79.47717 | 4886 ft | 224 kts | 263° |
| 2026-05-07 00:15 | 8.80114 | -79.49210 | 4675 ft | 205 kts | 288° |
| 2026-05-07 00:16 | 8.80698 | -79.50449 | 4488 ft | 189 kts | 310° |
| 2026-05-07 00:16 | 8.81630 | -79.51314 | 4297 ft | 180 kts | 332° |
| 2026-05-07 00:16 | 8.82787 | -79.51756 | 4122 ft | 178 kts | 353° |
| 2026-05-07 00:16 | 8.84014 | -79.51768 | 3929 ft | 176 kts | 9° |
| 2026-05-07 00:17 | 8.85162 | -79.51401 | 3668 ft | 179 kts | 32° |
| 2026-05-07 00:17 | 8.86136 | -79.50634 | 3405 ft | 175 kts | 37° |
| 2026-05-07 00:17 | 8.87077 | -79.49908 | 3275 ft | 166 kts | 37° |
| 2026-05-07 00:17 | 8.87994 | -79.49198 | 3194 ft | 166 kts | 37° |
| 2026-05-07 00:18 | 8.88902 | -79.48493 | 3130 ft | 163 kts | 37° |
| 2026-05-07 00:18 | 8.89798 | -79.47790 | 3055 ft | 163 kts | 37° |
| 2026-05-07 00:18 | 8.90778 | -79.47203 | 2923 ft | 166 kts | 27° |
| 2026-05-07 00:18 | 8.91765 | -79.46684 | 2816 ft | 152 kts | 30° |
| 2026-05-07 00:19 | 8.92705 | -79.46162 | 2693 ft | 156 kts | 30° |
| 2026-05-07 00:19 | 8.93630 | -79.45638 | 2516 ft | 154 kts | 31° |
| 2026-05-07 00:19 | 8.94559 | -79.45105 | 2320 ft | 152 kts | 32° |
| 2026-05-07 00:19 | 8.95466 | -79.44586 | 2140 ft | 150 kts | 32° |
| 2026-05-07 00:20 | 8.96383 | -79.44062 | 1936 ft | 152 kts | 31° |
| 2026-05-07 00:20 | 8.97313 | -79.43528 | 1719 ft | 154 kts | 30° |
| 2026-05-07 00:20 | 8.98245 | -79.42994 | 1513 ft | 154 kts | 30° |
| 2026-05-07 00:20 | 8.98859 | -79.42642 | 1378 ft | 153 kts | 29° |
| 2026-05-07 00:21 | 9.00060 | -79.41955 | 1113 ft | 145 kts | 30° |
| 2026-05-07 00:21 | 9.00929 | -79.41457 | 925 ft | 143 kts | 30° |
| 2026-05-07 00:21 | 9.01793 | -79.40962 | 730 ft | 142 kts | 30° |
| 2026-05-07 00:21 | 9.02651 | -79.40469 | 537 ft | 140 kts | 30° |
| 2026-05-07 00:22 | 9.03506 | -79.39978 | 359 ft | 143 kts | 30° |
| 2026-05-07 00:22 | 9.04079 | -79.39652 | 219 ft | 142 kts | 30° |
| 2026-05-07 00:22 | 9.04937 | -79.39162 | 49 ft | 142 kts | 30° |
| 2026-05-07 00:22 | 9.05978 | -79.38569 | 31 ft | 108 kts | 28° |
| 2026-05-07 00:23 | 9.06503 | -79.38271 | 28 ft | 65 kts | 29° |
| 2026-05-07 00:23 | 9.06783 | -79.38111 | 28 ft | 35 kts | 31° |
| 2026-05-07 00:23 | 9.06987 | -79.37996 | 29 ft | 32 kts | 30° |
| 2026-05-07 00:23 | 9.07163 | -79.37959 | 29 ft | 24 kts | 321° |
| 2026-05-07 00:24 | 9.07198 | -79.38027 | 29 ft | 14 kts | 276° |
| 2026-05-07 00:24 | 9.07167 | -79.38079 | 29 ft | 6 kts | 211° |
| 2026-05-07 00:24 | 9.07154 | -79.38086 | 29 ft | 0 kts | 210° |
| 2026-05-07 00:25 | 9.07071 | -79.38136 | 29 ft | 16 kts | 209° |
| 2026-05-07 00:25 | 9.06975 | -79.38190 | 29 ft | 15 kts | 214° |
| 2026-05-07 00:25 | 9.06898 | -79.38261 | 29 ft | 15 kts | 232° |
| 2026-05-07 00:25 | 9.06869 | -79.38308 | 29 ft | 3 kts | 242° |
| 2026-05-07 00:26 | 9.06855 | -79.38342 | 29 ft | 14 kts | 253° |
| 2026-05-07 00:26 | 9.06838 | -79.38416 | 29 ft | 10 kts | 258° |
| 2026-05-07 00:26 | 9.06830 | -79.38450 | 29 ft | 3 kts | 258° |
| 2026-05-07 00:26 | 9.06829 | -79.38458 | 29 ft | 0 kts | 258° |